Xi'an Xianyang International Airport
ZLXY : now visible

Airfield :











YOU CAN JOIN US ON...

 
LOGIN :

Register | Disclaimer

   EN    FR    IT 

 









Legend :    VFR   Marginal VFR   IFR   Intensive IFR   Very Intensive IFR
Visi :
Ceiling :
>= 8 km
>= 3000ft
5 to 8 km
1000 to 3000 ft
1500m to 5 km
500 to 1000 ft
800 to 1500m
200 to 500 ft
< 800m
< 200 ft
Symbols :   Thunderstorms  Fog  Heavy snow  Heavy precipitations  Wind > 20 kt






- Airport Elevation : 1572 ft
- IATA code : XIY


ZLXY - Xi'an Xianyang International

CURRENT METAR :
  • 250400Z 28003MPS 250V310 3500 RA BR FEW040 OVC070 22/21 Q1009 BECMG TL0430 -RA

EXPIRED METARs :
  • 250300Z 25002MPS 230V320 5000 -RA HZ FEW040 OVC070 24/20 Q1008 BECMG TL0400 SHRA FEW040CB OVC050
  • 250200Z 04004MPS 7000 NSC 25/18 Q1007 BECMG TL0340 30005MPS SHRA FEW040CB OVC050
  • 250100Z 04006MPS 8000 NSC 26/18 Q1006 NOSIG
  • 250000Z 04006MPS CAVOK 26/18 Q1006 NOSIG

TAF TAF ZLXY
Valid from the 25 at 00:00 until the 26 at 00:00 UTC


242105Z 2500/2524 06004MPS 6000 NSC TX28/2503Z TN20/2522Z
BECMG 2503/2504 30005G12MPS TSRA FEW040CB OVC050
BECMG 2506/2507 24004MPS SHRA
BECMG 2511/2512 NSW NSC
ZLHW FIR / Asia



MET'MAP, your aeronautical weather chart ! - Copyright ORBIFLY December 2007 - Disclaimer

ORBIFLY MET'MAP TEAM :

Programming & Development : Alexandra Zaïnal
Original concept : Baudouin d'Aumeries
Technical & hardware support : Manuel Goepfert
Assistance : Marc-Olivier Méhu




SOURCES & CREDITS :

   NOAA       Earth
Advisory